Latest Weather Observations for Grafton Airport

IDN60801

Issued at 1:35 pm EST Friday 19 September 2014 (issued every 30 minutes, with the page automatically refreshed every 10 minutes)

About weather observations | Map of weather stations | Latest weather observations for NSW | Other Formats
Station Details ID: 058161 Name: GRAFTON AIRPORT AWS Lat: -29.76 Lon: 153.03 Height: 25.09 m
Data from the previous 72 hours. | See also: Recent months for locations in New South Wales
Date/Time
EST
Temp
°C
App
Temp
°C
Dew
Point
Rel
Hum
%
Delta-T
°C
Wind Press
QNH
hPa
Press
MSL
hPa
Rain
since 9 am
mm
Dir
 
Spd
km/h
Gust
km/h
Spd
kts
Gust
kts
19/01:30pm 22.8 19.6 5.3 32 8.7 N 11 15 6 8 1017.7 1017.7 0.0
19/01:00pm 22.5 20.0 5.0 32 8.7 NNE 7 15 4 8 1018.5 1018.5 0.0
19/12:30pm 22.2 19.6 6.0 35 8.2 E 9 19 5 10 1019.0 1019.0 0.0
19/12:00pm 22.0 19.4 7.8 40 7.4 N 11 17 6 9 1019.7 1019.7 0.0
19/11:30am 20.9 18.7 7.9 43 6.7 NNE 9 19 5 10 1020.0 1020.0 0.0
19/11:00am 20.9 18.2 8.9 46 6.3 NE 13 19 7 10 1020.7 1020.7 0.0
19/10:30am 20.0 17.2 8.7 48 5.9 NE 13 20 7 11 1021.0 1021.0 0.0
19/10:00am 19.4 17.7 8.4 49 5.7 NE 7 11 4 6 1021.5 1021.5 0.0
19/09:30am 18.4 16.8 7.8 50 5.4 SE 6 9 3 5 1021.8 1021.8 0.0
19/09:00am 16.5 14.9 8.2 58 4.2 SSW 6 9 3 5 1022.1 1022.1 0.0
19/08:30am 14.8 13.3 8.3 65 3.3 SSW 6 9 3 5 1022.4 1022.4 0.0
19/08:00am 12.5 10.8 7.4 71 2.5 WSW 6 9 3 5 1022.5 1022.5 0.0
19/07:30am 10.5 8.5 7.2 80 1.6 S 7 9 4 5 1022.3 1022.3 0.0
19/07:00am 8.5 7.8 6.8 89 0.8 CALM 0 0 0 0 1022.0 1022.0 0.0
19/06:30am 6.1 5.1 5.7 97 0.2 CALM 0 0 0 0 1021.7 1021.7 0.0
19/06:00am 5.1 3.9 4.4 95 0.3 S 0 0 0 0 1021.4 1021.4 0.0
19/05:30am 5.4 4.2 4.8 96 0.3 CALM 0 0 0 0 1021.1 1021.1 0.0
19/05:00am 5.2 4.0 4.5 95 0.3 CALM 0 0 0 0 1020.8 1020.8 0.0
19/04:30am 5.8 3.9 5.1 95 0.3 S 4 7 2 4 1020.5 1020.5 0.0
19/04:00am 5.8 4.7 5.1 95 0.3 CALM 0 0 0 0 1020.4 1020.4 0.0
19/03:30am 5.6 3.6 4.6 93 0.4 SSW 4 7 2 4 1020.1 1020.1 0.0
19/03:00am 6.0 4.9 5.0 93 0.4 SSW 0 0 0 0 1020.2 1020.2 0.0
19/02:30am 6.7 5.7 5.7 93 0.4 CALM 0 0 0 0 1020.3 1020.3 0.0
19/02:00am 6.7 5.7 5.5 92 0.5 CALM 0 0 0 0 1020.6 1020.6 0.0
19/01:30am 6.7 5.6 5.0 89 0.7 CALM 0 0 0 0 1020.8 1020.8 0.0
19/01:00am 7.5 6.5 5.5 87 0.9 CALM 0 0 0 0 1020.8 1020.8 0.0
19/12:30am 7.4 6.4 5.5 88 0.8 CALM 0 0 0 0 1020.9 1020.9 0.0
19/12:00am 8.0 7.0 5.8 86 1.0 SSW 0 0 0 0 1021.0 1021.0 0.0
 
Date/Time
EST
Temp
°C
App
Temp
°C
Dew
Point
Rel
Hum
%
Delta-T
°C
Wind Press
QNH
hPa
Press
MSL
hPa
Rain
since 9 am
mm
Dir
 
Spd
km/h
Gust
km/h
Spd
kts
Gust
kts
18/11:30pm 8.5 7.2 6.1 85 1.1 SSW 2 7 1 4 1021.0 1021.0 0.0
18/11:00pm 8.7 6.2 6.5 86 1.0 S 9 9 5 5 1021.1 1021.1 0.0
18/10:30pm 9.3 7.8 6.6 83 1.3 S 4 9 2 5 1021.1 1021.1 0.0
18/10:00pm 8.9 6.9 6.2 83 1.2 SSW 6 9 3 5 1020.9 1020.9 0.0
18/09:30pm 10.3 9.2 6.8 79 1.6 SSW 2 7 1 4 1020.8 1020.8 0.0
18/09:00pm 9.9 9.1 6.4 79 1.6 CALM 0 6 0 3 1020.6 1020.6 0.0
18/08:30pm 10.6 8.5 6.7 77 1.8 SSW 7 7 4 4 1020.3 1020.3 0.0
18/08:00pm 11.4 8.9 6.5 72 2.3 S 9 11 5 6 1020.0 1020.0 0.0
18/07:30pm 11.8 9.3 6.5 70 2.5 SSW 9 9 5 5 1019.5 1019.5 0.0
18/07:00pm 13.5 11.4 5.9 60 3.6 SSW 6 9 3 5 1018.9 1018.9 0.0
18/06:30pm 14.5 12.4 5.6 55 4.2 S 6 9 3 5 1018.2 1018.2 0.0
18/06:00pm 16.5 15.0 5.2 47 5.4 SE 2 9 1 5 1017.7 1017.7 0.0
18/05:30pm 17.5 15.1 5.1 44 6.0 ESE 7 13 4 7 1017.2 1017.1 0.0
18/05:00pm 19.0 15.3 4.7 39 6.9 ESE 13 20 7 11 1016.8 1016.7 0.0
18/04:30pm 19.8 16.1 4.3 36 7.5 ESE 13 20 7 11 1016.2 1016.1 0.0
18/04:00pm 20.3 15.7 3.9 34 7.8 SE 17 24 9 13 1015.7 1015.6 0.0
18/03:30pm 21.0 16.1 4.1 33 8.2 E 19 26 10 14 1015.4 1015.3 0.0
18/03:00pm 21.6 16.4 3.8 31 8.6 E 20 28 11 15 1015.4 1015.3 0.0
18/02:30pm 21.9 16.9 3.6 30 8.8 E 19 28 10 15 1015.2 1015.1 0.0
18/02:00pm 22.7 17.8 5.2 32 8.7 E 20 33 11 18 1015.3 1015.2 0.0
18/01:30pm 23.4 19.0 0.5 22 10.5 NE 13 20 7 11 1015.5 1015.4 0.0
18/01:00pm 23.6 20.3 0.0 21 10.7 NNE 7 11 4 6 1015.8 1015.7 0.0
18/12:30pm 22.7 19.3 -0.7 21 10.4 S 7 11 4 6 1016.4 1016.3 0.0
18/12:00pm 22.0 18.7 -0.1 23 9.9 SE 7 17 4 9 1017.0 1016.9 0.0
18/11:30am 22.0 18.2 1.6 26 9.5 SSW 11 17 6 9 1017.5 1017.5 0.0
18/11:00am 21.7 17.5 1.4 26 9.3 SW 13 24 7 13 1018.0 1018.0 0.0
18/10:30am 20.6 17.3 2.4 30 8.5 W 9 17 5 9 1018.5 1018.5 0.0
18/10:00am 20.4 17.4 4.0 34 7.9 SW 9 17 5 9 1018.6 1018.6 0.0
18/09:30am 19.8 16.6 3.1 33 7.8 SW 9 17 5 9 1018.9 1018.9 0.0
18/09:00am 18.8 14.9 0.9 30 8.0 W 11 17 6 9 1019.1 1019.1 0.0
18/08:30am 17.6 15.6 6.2 47 5.6 WNW 6 11 3 6 1019.1 1019.1 0.0
18/08:00am 15.5 14.0 7.0 57 4.2 WNW 4 7 2 4 1019.2 1019.2 0.0
18/07:30am 14.0 12.4 6.4 60 3.7 WSW 4 7 2 4 1019.1 1019.1 0.0
18/07:00am 12.5 10.5 6.1 65 3.0 SSW 6 7 3 4 1018.8 1018.8 0.0
18/06:30am 10.9 7.7 5.0 67 2.7 SW 11 17 6 9 1018.5 1018.5 0.0
18/06:00am 9.0 6.5 4.8 75 1.9 SW 7 9 4 5 1018.1 1018.1 0.0
18/05:30am 8.7 6.3 5.1 78 1.6 SW 7 9 4 5 1017.7 1017.7 0.0
18/05:00am 8.7 6.3 5.4 80 1.5 S 7 9 4 5 1017.3 1017.2 0.0
18/04:30am 9.8 7.6 5.2 73 2.1 SW 6 9 3 5 1016.8 1016.7 0.0
18/04:00am 8.6 7.7 5.9 83 1.2 CALM 0 0 0 0 1016.5 1016.4 0.0
18/03:30am 9.6 7.4 6.3 80 1.5 SSW 7 7 4 4 1016.2 1016.1 0.0
18/03:00am 9.5 7.6 7.4 87 1.0 SW 7 9 4 5 1016.0 1015.9 0.0
18/02:30am 9.7 7.1 7.6 87 1.0 SSW 11 15 6 8 1016.0 1015.9 0.0
18/02:00am 10.7 8.2 8.1 84 1.3 S 11 13 6 7 1016.1 1016.0 0.0
18/01:30am 10.7 8.7 8.6 87 1.0 S 9 13 5 7 1016.1 1016.0 0.0
18/01:00am 12.0 10.0 8.7 80 1.6 SSW 9 11 5 6 1016.0 1015.9 0.0
18/12:30am 11.7 9.8 9.1 84 1.3 S 9 11 5 6 1016.0 1015.9 0.0
18/12:00am 11.0 9.6 8.9 87 1.0 SSW 6 9 3 5 1015.8 1015.7 0.0
 
Date/Time
EST
Temp
°C
App
Temp
°C
Dew
Point
Rel
Hum
%
Delta-T
°C
Wind Press
QNH
hPa
Press
MSL
hPa
Rain
since 9 am
mm
Dir
 
Spd
km/h
Gust
km/h
Spd
kts
Gust
kts
17/11:30pm 12.1 10.8 9.8 86 1.2 SSW 7 9 4 5 1015.8 1015.7 0.0
17/11:00pm 12.9 11.3 10.1 83 1.4 S 9 9 5 5 1015.7 1015.6 0.0
17/10:30pm 13.5 12.2 10.1 80 1.8 S 7 9 4 5 1015.6 1015.5 0.0
17/10:00pm 13.3 12.1 10.3 82 1.6 SSW 7 9 4 5 1015.4 1015.3 0.0
17/09:30pm 14.5 13.6 10.5 77 2.1 WSW 6 7 3 4 1015.1 1015.0 0.0
17/09:00pm 15.5 14.4 10.7 73 2.5 SSW 7 9 4 5 1014.8 1014.7 0.0
17/08:30pm 15.9 15.4 10.9 72 2.7 SW 4 7 2 4 1014.4 1014.3 0.0
17/08:00pm 16.8 15.1 11.3 70 3.0 SSW 11 15 6 8 1013.9 1013.8 0.0
17/07:30pm 17.3 16.0 11.3 68 3.3 SSW 9 13 5 7 1013.3 1013.2 0.0
17/07:00pm 17.6 15.3 10.5 63 3.8 S 13 17 7 9 1012.6 1012.5 0.0
17/06:30pm 19.6 16.6 7.7 46 6.1 S 13 17 7 9 1012.2 1012.1 0.0
17/06:00pm 21.7 19.4 0.3 24 9.7 SSW 2 9 1 5 1011.6 1011.5 0.0
17/05:30pm 22.7 19.7 1.1 24 10.0 W 6 11 3 6 1011.2 1011.1 0.0
17/05:00pm 24.7 21.3 1.6 22 10.9 NW 9 15 5 8 1010.8 1010.7 0.0
17/04:30pm 25.7 21.4 1.1 20 11.6 W 13 22 7 12 1010.2 1010.1 0.0
17/04:00pm 26.2 22.6 2.8 22 11.5 NNW 11 20 6 11 1009.8 1009.7 0.0
17/03:30pm 24.9 20.9 3.0 24 10.7 N 13 19 7 10 1009.7 1009.6 0.0
17/03:00pm 26.3 23.0 4.7 25 11.0 NNW 11 20 6 11 1009.7 1009.6 0.0
17/02:30pm 26.8 23.6 3.3 22 11.6 WNW 9 24 5 13 1009.8 1009.7 0.0
17/02:00pm 26.4 22.2 1.7 20 11.9 NNW 13 20 7 11 1010.0 1009.9 0.0
17/01:30pm 26.3 23.1 5.3 26 10.7 NW 11 17 6 9 1010.3 1010.2 0.0
17/01:00pm 25.3 21.8 5.5 28 10.1 NW 13 26 7 14 1010.9 1010.8 0.0
17/12:30pm 25.0 21.5 3.6 25 10.5 NW 11 19 6 10 1011.4 1011.3 0.0
17/12:00pm 24.7 21.3 6.0 30 9.6 NNW 13 28 7 15 1011.8 1011.7 0.0
17/11:30am 23.3 18.7 3.8 28 9.5 NNW 17 26 9 14 1012.7 1012.6 0.0
17/11:00am 23.3 19.6 2.2 25 10.0 WNW 11 20 6 11 1013.4 1013.3 0.0
17/10:30am 22.8 19.3 3.4 28 9.4 W 11 19 6 10 1013.7 1013.6 0.0
17/10:00am 22.4 19.1 4.5 31 8.8 W 11 17 6 9 1014.3 1014.2 0.0
17/09:30am 21.6 18.7 4.7 33 8.3 W 9 19 5 10 1014.6 1014.5 0.0
17/09:00am 21.0 18.3 5.4 36 7.7 WSW 9 15 5 8 1014.8 1014.7 -
17/08:30am 19.7 18.8 9.3 51 5.5 SSW 4 7 2 4 1014.9 1014.8 -
17/08:00am 16.9 15.4 7.0 52 4.9 S 4 11 2 6 1014.9 1014.8 -
17/07:30am 15.0 13.2 7.1 59 3.9 WNW 6 9 3 5 1015.0 1014.9 -
17/07:00am 13.2 10.9 7.4 68 2.8 S 9 13 5 7 1014.5 1014.4 -
17/06:30am 10.6 8.3 7.3 80 1.6 SSW 9 13 5 7 1014.0 1013.9 -
17/06:00am 9.3 7.3 6.2 81 1.4 WSW 6 7 3 4 1013.6 1013.5 -
17/05:30am 9.8 8.5 6.2 78 1.7 S 2 7 1 4 1013.1 1013.0 -
17/05:00am 10.0 8.1 6.5 79 1.6 SSW 6 9 3 5 1012.6 1012.5 -
17/04:30am 11.4 10.6 6.3 71 2.4 CALM 0 6 0 3 1012.3 1012.2 -
17/04:00am 10.9 9.6 5.9 71 2.3 W 2 6 1 3 1012.0 1011.9 -
17/03:30am 13.7 11.9 5.3 57 3.9 S 4 7 2 4 1011.6 1011.5 -
17/03:00am 12.4 10.2 5.3 62 3.3 N 6 7 3 4 1011.4 1011.3 0.0
17/02:30am 11.9 9.8 6.0 67 2.8 WSW 6 11 3 6 1011.3 1011.2 -
17/02:00am 13.4 11.4 6.3 62 3.4 S 6 9 3 5 1011.3 1011.2 -
17/01:30am 15.1 13.7 5.3 52 4.6 SW 2 7 1 4 1011.4 1011.3 -
17/01:00am 17.1 14.9 3.4 40 6.3 SW 4 7 2 4 1011.3 1011.2 -
17/12:30am 20.6 17.5 1.5 28 8.7 NNW 7 13 4 7 1011.3 1011.2 -
17/12:00am 20.7 17.7 1.1 27 8.9 WNW 6 15 3 8 1011.4 1011.3 -
 
Date/Time
EST
Temp
°C
App
Temp
°C
Dew
Point
Rel
Hum
%
Delta-T
°C
Wind Press
QNH
hPa
Press
MSL
hPa
Rain
since 9 am
mm
Dir
 
Spd
km/h
Gust
km/h
Spd
kts
Gust
kts
16/11:30pm 20.3 16.7 0.7 27 8.8 WSW 9 17 5 9 1011.4 1011.3 -
16/11:00pm 21.0 17.0 0.8 26 9.2 WSW 11 17 6 9 1011.3 1011.2 -
16/10:30pm 21.9 17.9 0.4 24 9.7 W 11 19 6 10 1011.2 1011.1 -
16/10:00pm 22.4 18.1 0.9 24 9.9 WSW 13 24 7 13 1011.1 1011.0 -
16/09:30pm 22.0 19.5 1.6 26 9.5 W 4 13 2 7 1010.8 1010.7 -
16/09:00pm 23.6 20.2 1.9 24 10.3 W 9 22 5 12 1010.6 1010.5 0.0
16/08:30pm 23.3 20.2 1.6 24 10.2 W 7 13 4 7 1010.4 1010.3 -
16/08:00pm 22.6 20.5 3.7 29 9.2 W 4 13 2 7 1010.1 1010.0 -
16/07:30pm 21.2 19.7 9.1 46 6.4 NNW 7 17 4 9 1009.5 1009.4 -
16/07:00pm 20.1 19.6 12.8 63 4.1 NNE 7 11 4 6 1009.1 1009.0 -
16/06:30pm 21.0 20.6 12.9 60 4.6 E 7 11 4 6 1008.6 1008.5 -
16/06:00pm 21.8 20.7 11.8 53 5.6 NE 9 13 5 7 1008.0 1007.9 -
16/05:30pm 23.1 20.3 11.5 48 6.5 N 17 24 9 13 1007.5 1007.4 -
16/05:00pm 24.4 23.0 14.5 54 5.9 NNE 15 19 8 10 1007.2 1007.1 -
16/04:30pm 26.2 23.7 14.0 47 7.2 NNE 20 28 11 15 1007.3 1007.2 -
16/04:00pm 28.1 24.8 9.4 31 10.4 N 17 26 9 14 1007.3 1007.2 -
16/03:30pm 26.6 24.3 13.0 43 8.0 NNE 17 24 9 13 1007.5 1007.4 -
16/02:30pm 27.3 24.3 12.5 40 8.6 NNE 20 28 11 15 1008.1 1008.0 0.0
16/02:00pm 27.4 24.2 11.4 37 9.2 N 19 28 10 15 1008.6 1008.5 0.0

Other Formats:

Comma delimited format used in spreadsheet applications
http://www.bom.gov.au/fwo/IDN60801/IDN60801.95570.axf

JavaScript Object Notation format (JSON) in row-major order
http://www.bom.gov.au/fwo/IDN60801/IDN60801.95570.json